Aérodrome :
LOGIN :

S'inscrire | Disclaimer

   EN    FR    IT 

 










Légende :    VFR   VFR Marginal   IFR   IFR Intensif   IFR Très Intensif
Visi : 
Plafond : 
>= 8 km
>= 3000ft
5 à 8 km
1000 à 3000 ft
1500m à 5 km
500 à 1000 ft
800 à 1500m
200 à 500 ft
< 800m
< 200 ft
Symboles :   Orages  Brouillard  Fortes neiges  Fortes précipitations  Vent > 20 kt
SIGMETs :   Divers  Orages  Givrage  Turbulence  Onde Orograph.  Cendres Volcan.







- Altitude de l'aérodrome : 453 ft
- Code IATA : SBK
- Voir les cartes d'approche


LFRT - St Brieuc Armor

DERNIER METAR :
  • 171430Z AUTO 17003KT 110V240 9999 FEW045 16/10 Q1018

METARs EXPIRÉS :
  • 171400Z AUTO VRB03KT 9999 FEW026 17/10 Q1018
  • 171330Z AUTO 20003KT 150V250 9999 SCT022 BKN028 16/10 Q1018
  • 171300Z AUTO 18004KT 140V240 9999 FEW022 SCT033 16/11 Q1018
  • 171230Z AUTO 17004KT 120V230 9999 SCT020 BKN029 17/11 Q1018
  • 171200Z AUTO 20003KT 130V290 9999 BKN017 BKN022 15/11 Q1018

Prévision TAF périmée.
Pas de NOTAMs connus pour ce terrain.



MET'MAP, la Météo Aéronautique d'un coup d'oeil ! - Copyright ORBIFLY Décembre 2007 - Disclaimer

ORBIFLY MET'MAP TEAM :

Programmation & Développement : Alexandra Zaïnal
Conception & Développement : Baudouin d'Aumeries
Co-Programmation & Développement : Marc-Olivier Méhu
Soutien technique & logistique : Manuel Goepfert

Contact : metmap@orbifly.com




SOURCES & CREDITS :

   NOAA